Terminal Aerodrome Forecast
Issued by NWS

Home | Current Version | Previous Version | Text Only | Print | Product List | Glossary On
Versions: 1 2 3 4 5 6 7 8 9 10 11 12 13 14 15 16 17 18 19 20 21 22 23 24 25 26 27 28
000
FTUS45 KBOI 261720
TAFTWF
TAF
KTWF 261720Z 2618/2718 25015KT P6SM -SHRA OVC030
      TEMPO 2619/2623 5SM SHRA BR BKN015 OVC030
     FM270500 24022G30KT P6SM BKN060=

USA.gov is the U.S. government's official web portal to all federal, state and local government web resources and services.